Terminal Aerodrome Forecast
Issued by NWS

Home | Current Version | Previous Version | Text Only | Print | Product List | Glossary On
Versions: 1 2 3 4 5 6 7 8 9 10 11 12 13 14 15 16 17 18
000
FTUS43 KLSX 271900 AAA
TAFUIN
TAF AMD
KUIN 271916Z 2719/2818 32008KT P6SM FEW025
     FM280000 VRB04KT P6SM OVC070
     FM281100 15010KT P6SM SCT070=

USA.gov is the U.S. government's official web portal to all federal, state and local government web resources and services.